Time;durP1;ratioP1;P1;durP2;ratioP2;P2;SDS_P1;SDS_P2;PMS_P1;PMS_P2;Temp;Humidity;BMP_temperature;BMP_pressure;BME280_temperature;BME280_humidity;BME280_pressure;Samples;Min_cycle;Max_cycle;Signal;HPM_P1;HPM_P2
2023/09/03 07:01:26;;;;;;;0.20;0.20;;;21.00;99.90;26.10;102468.00;;;;6217274;22;1394628;-75
2023/09/03 07:03:55;;;;;;;0.10;0.10;;;21.90;99.90;25.30;102479.00;;;;6281920;22;20184;-76
2023/09/03 07:06:24;;;;;;;1.17;1.08;;;21.90;99.90;26.80;102499.00;;;;6256651;22;20243;-75
2023/09/03 07:08:55;;;;;;;0.93;0.88;;;22.30;99.90;25.90;102513.00;;;;6281533;22;20220;-75
2023/09/03 07:11:29;;;;;;;0.65;0.65;;;22.90;99.90;25.50;102492.00;;;;6281762;22;20148;-75
2023/09/03 07:14:04;;;;;;;0.10;0.10;;;22.70;99.90;25.80;102446.00;;;;6281957;22;20137;-75
2023/09/03 07:16:41;;;;;;;0.10;0.10;;;22.30;99.90;28.50;102538.00;;;;6282382;22;20479;-75
2023/09/03 07:19:10;;;;;;;0.77;0.77;;;23.50;99.90;30.10;102568.00;;;;6282120;22;20151;-74
2023/09/03 07:21:36;;;;;;;0.40;0.40;;;24.70;99.90;26.30;102504.00;;;;6281648;22;20152;-76
2023/09/03 07:24:11;;;;;;;0.82;0.82;;;23.80;99.90;27.60;102520.00;;;;6281440;22;20143;-76
2023/09/03 07:26:37;;;;;;;4.95;2.50;;;23.60;99.90;27.60;102531.00;;;;6256379;22;20725;-73
2023/09/03 07:29:05;;;;;;;5.28;2.47;;;24.40;99.90;24.00;102489.00;;;;6281206;22;20641;-75
2023/09/03 07:31:42;;;;;;;0.40;0.40;;;22.80;99.90;24.00;102439.00;;;;6256784;22;20270;-75
2023/09/03 07:34:15;;;;;;;0.10;0.10;;;21.50;99.90;24.60;102476.00;;;;6282037;22;20133;-75
2023/09/03 07:36:44;;;;;;;0.47;0.47;;;21.30;99.90;27.50;102534.00;;;;6282401;22;20580;-75
2023/09/03 07:39:12;;;;;;;2.03;1.92;;;22.60;99.90;27.20;102548.00;;;;6256006;22;20152;-73
2023/09/03 07:41:41;;;;;;;1.67;1.58;;;23.70;99.90;25.70;102515.00;;;;6281247;22;20176;-75
2023/09/03 07:44:13;;;;;;;0.10;0.10;;;23.00;99.90;26.80;102480.00;;;;6281516;22;20168;-75
2023/09/03 07:46:39;;;;;;;3.50;2.88;;;23.10;99.90;24.90;102516.00;;;;6308472;22;20198;-75
2023/09/03 07:49:15;;;;;;;0.30;0.30;;;23.00;99.90;25.10;102502.00;;;;6281867;22;20569;-76
2023/09/03 07:51:51;;;;;;;7.80;5.47;;;22.30;99.90;25.30;102534.00;;;;6281767;22;20553;-75
2023/09/03 07:54:29;;;;;;;0.55;0.55;;;22.70;99.90;27.00;102503.00;;;;6281928;22;20167;-75
2023/09/03 07:57:00;;;;;;;0.20;0.20;;;23.10;99.90;28.20;102558.00;;;;6281534;22;20140;-76
2023/09/03 07:59:26;;;;;;;0.70;0.47;;;24.00;99.90;27.40;102539.00;;;;6255367;22;20576;-76
2023/09/03 08:02:03;;;;;;;4.80;4.28;;;23.90;99.90;26.80;102564.00;;;;6281548;22;20170;-75
2023/09/03 08:04:38;;;;;;;0.55;0.55;;;24.10;99.90;26.80;102501.00;;;;6255900;22;20148;-75
2023/09/03 08:07:16;;;;;;;0.10;0.10;;;23.50;99.90;27.60;102535.00;;;;6256500;22;20148;-75
2023/09/03 08:09:45;;;;;;;0.32;0.32;;;23.90;99.90;28.70;102566.00;;;;6256457;22;20156;-73
2023/09/03 08:12:25;;;;;;;6.65;5.72;;;24.70;99.90;27.70;102614.00;;;;6280962;22;20160;-74
2023/09/03 08:15:01;;;;;;;2.92;2.47;;;25.00;99.90;25.00;102525.00;;;;6256620;22;20205;-76
2023/09/03 08:17:36;;;;;;;6.00;5.47;;;23.50;99.90;25.10;102491.00;;;;6281837;22;20531;-75
2023/09/03 08:20:09;;;;;;;2.17;1.38;;;22.90;99.90;27.60;102557.00;;;;6255930;22;20159;-76
2023/09/03 08:22:41;;;;;;;0.32;0.32;;;23.40;99.90;28.30;102558.00;;;;6255879;22;20631;-75
2023/09/03 08:25:12;;;;;;;2.33;2.15;;;24.20;99.90;29.30;102590.00;;;;6281363;22;20149;-73
2023/09/03 08:28:02;;;;;;;1.40;1.38;;;25.00;99.90;29.50;102608.00;;;;6308276;22;20153;-73
2023/09/03 08:30:28;;;;;;;1.05;1.05;;;25.60;99.90;27.00;102570.00;;;;6282007;22;20191;-76
2023/09/03 08:32:54;;;;;;;0.10;0.10;;;24.70;99.90;28.60;102559.00;;;;6281337;22;20140;-73
2023/09/03 08:35:29;;;;;;;3.10;2.25;;;24.60;99.90;27.00;102556.00;;;;6255465;22;20206;-73
2023/09/03 08:37:58;;;;;;;5.07;3.97;;;24.40;99.90;26.00;102524.00;;;;6255676;22;20152;-75
2023/09/03 08:40:36;;;;;;;2.35;0.73;;;23.70;99.90;28.10;102555.00;;;;6255566;22;20168;-75
2023/09/03 08:43:08;;;;;;;1.55;1.55;;;24.10;99.90;28.70;102588.00;;;;6255911;22;20260;-73
2023/09/03 08:45:45;;;;;;;0.10;0.10;;;24.70;99.90;28.50;102598.00;;;;6255136;22;20211;-73
2023/09/03 08:48:20;;;;;;;3.25;1.95;;;24.70;99.90;29.90;102626.00;;;;6280847;22;20140;-73
2023/09/03 08:50:46;;;;;;;0.45;0.45;;;25.20;99.90;31.10;102641.00;;;;6255077;22;20191;-75
2023/09/03 08:53:23;;;;;;;0.52;0.52;;;26.00;99.90;31.50;102650.00;;;;6281301;22;20621;-74
2023/09/03 08:55:49;;;;;;;1.42;1.30;;;26.80;99.90;28.20;102674.00;;;;6255549;22;20635;-73
2023/09/03 08:58:18;;;;;;;3.75;2.25;;;26.20;99.90;28.60;102633.00;;;;6307874;22;20571;-73
2023/09/03 09:00:50;;;;;;;0.43;0.43;;;25.30;99.90;30.30;102628.00;;;;6255567;22;20171;-73
2023/09/03 09:03:28;;;;;;;1.20;1.20;;;25.70;99.90;28.70;102590.00;;;;6280773;22;20168;-74
2023/09/03 09:06:00;;;;;;;2.13;1.50;;;25.10;99.90;29.30;102643.00;;;;6255283;22;20234;-73
2023/09/03 09:08:30;;;;;;;0.45;0.45;;;25.50;99.90;30.00;102651.00;;;;6255603;22;20152;-73
2023/09/03 09:11:14;;;;;;;0.20;0.20;;;25.70;99.90;30.50;102664.00;;;;6280777;22;20160;-73
2023/09/03 09:14:03;;;;;;;1.55;1.45;;;26.10;99.90;30.00;102677.00;;;;6255109;22;20152;-73
2023/09/03 09:16:32;;;;;;;0.20;0.20;;;26.20;99.90;30.60;102664.00;;;;6255477;22;20157;-74
2023/09/03 09:19:09;;;;;;;0.10;0.10;;;26.20;99.90;31.70;102665.00;;;;6280127;22;20249;-74
2023/09/03 09:21:35;;;;;;;0.13;0.13;;;26.70;99.90;31.30;102678.00;;;;6255950;22;20163;-73
2023/09/03 09:24:07;;;;;;;2.65;0.55;;;27.00;99.90;31.80;102679.00;;;;6280512;22;20643;-73
2023/09/03 09:26:39;;;;;;;0.65;0.65;;;27.30;99.90;31.20;102648.00;;;;6280835;22;20584;-74
2023/09/03 09:29:18;;;;;;;0.65;0.65;;;27.20;99.90;32.00;102669.00;;;;6280441;22;20152;-74
2023/09/03 09:31:44;;;;;;;0.60;0.60;;;27.30;99.90;31.40;102700.00;;;;6255641;22;20246;-74
2023/09/03 09:34:20;;;;;;;1.77;0.70;;;27.00;99.90;30.80;102710.00;;;;6280338;22;20152;-73
2023/09/03 09:36:57;;;;;;;0.47;0.47;;;27.00;99.90;30.50;102697.00;;;;6280820;22;20136;-73
2023/09/03 09:39:41;;;;;;;0.10;0.10;;;26.90;99.90;31.50;102693.00;;;;6254811;22;20156;-74
2023/09/03 09:42:22;;;;;;;2.00;1.10;;;27.10;99.90;31.70;102684.00;;;;6254266;22;20262;-73
2023/09/03 09:44:51;;;;;;;0.90;0.88;;;27.10;99.90;30.50;102695.00;;;;6255728;22;20162;-73
2023/09/03 09:47:23;;;;;;;0.10;0.10;;;27.00;99.90;30.40;102699.00;;;;6307379;22;20151;-74
2023/09/03 09:49:52;;;;;;;2.08;1.45;;;26.40;99.90;27.80;102735.00;;;;6254838;22;20213;-76
2023/09/03 09:52:34;;;;;;;0.10;0.10;;;25.70;99.90;30.70;102715.00;;;;6307307;22;20186;-74
2023/09/03 09:55:06;;;;;;;2.78;1.52;;;25.90;99.90;30.90;102699.00;;;;6280642;22;20136;-73
2023/09/03 09:57:33;;;;;;;0.98;0.98;;;26.50;99.90;31.10;102700.00;;;;6307570;22;20151;-73
2023/09/03 10:00:32;;;;;;;0.10;0.10;;;26.80;99.90;31.30;102686.00;;;;6280343;22;20172;-73
2023/09/03 10:03:15;;;;;;;0.20;0.20;;;27.20;99.90;31.00;102567.00;;;;6279871;22;20168;-73
2023/09/03 10:05:50;;;;;;;0.20;0.20;;;27.00;99.90;31.00;102706.00;;;;6257652;22;20188;-74
2023/09/03 10:08:25;;;;;;;1.30;1.20;;;27.10;99.90;29.70;102686.00;;;;6280178;22;20226;-73
2023/09/03 10:11:05;;;;;;;2.75;2.47;;;26.70;99.90;30.40;102710.00;;;;6280768;22;20170;-73
2023/09/03 10:13:34;;;;;;;0.20;0.20;;;26.60;99.90;29.70;102692.00;;;;6254883;22;20167;-73
2023/09/03 10:16:07;;;;;;;0.40;0.40;;;26.10;99.90;30.50;102691.00;;;;6280170;22;20137;-73
2023/09/03 10:18:46;;;;;;;0.20;0.20;;;26.40;99.90;31.70;102685.00;;;;6254105;22;20210;-73
2023/09/03 10:33:33;;;;;;;1.05;1.05;;;25.10;99.90;29.90;102641.00;;;;5090251;27;20517;-74
2023/09/03 10:36:17;;;;;;;0.10;0.10;;;25.80;99.90;30.30;102662.00;;;;5080135;28;20215;-74
2023/09/03 10:39:22;;;;;;;0.57;0.57;;;26.20;99.90;30.60;102643.00;;;;5085943;28;20178;-75
2023/09/03 10:42:15;;;;;;;0.20;0.20;;;26.70;99.90;31.30;102664.00;;;;5082714;28;20243;-75
2023/09/03 10:44:57;;;;;;;0.50;0.50;;;26.60;99.90;32.10;102640.00;;;;5079472;28;20185;-75
2023/09/03 10:47:24;;;;;;;1.30;1.20;;;27.30;99.90;30.90;102661.00;;;;5069865;28;20316;-75
2023/09/03 10:49:58;;;;;;;0.35;0.35;;;27.50;99.90;30.30;102679.00;;;;5066336;28;20182;-75
2023/09/03 10:52:32;;;;;;;0.98;0.85;;;26.90;99.90;30.50;102668.00;;;;5085541;28;20201;-75
2023/09/03 10:55:18;;;;;;;1.52;0.70;;;26.90;99.90;29.50;102682.00;;;;5069895;28;20187;-75
2023/09/03 10:58:08;;;;;;;0.65;0.65;;;26.90;99.90;31.80;102661.00;;;;5058926;28;20192;-75
2023/09/03 11:01:17;;;;;;;0.20;0.20;;;27.10;99.90;32.50;102633.00;;;;5068857;28;20780;-75
2023/09/03 11:03:54;;;;;;;1.27;1.20;;;27.70;99.90;31.10;102675.00;;;;5085388;28;20186;-75
2023/09/03 11:06:35;;;;;;;0.40;0.40;;;27.40;99.90;31.50;102651.00;;;;5085266;28;20665;-75
2023/09/03 11:09:22;;;;;;;0.10;0.10;;;27.60;99.90;32.30;102655.00;;;;5078585;28;20178;-75
2023/09/03 11:12:02;;;;;;;1.02;0.82;;;27.70;99.90;30.90;102669.00;;;;5062113;28;20205;-75
2023/09/03 11:14:38;;;;;;;0.80;0.80;;;27.40;99.90;30.60;102674.00;;;;5053729;28;20197;-75
2023/09/03 11:17:16;;;;;;;0.57;0.52;;;26.80;99.90;30.40;102682.00;;;;5068348;28;20197;-75
2023/09/03 11:19:53;;;;;;;0.28;0.28;;;27.00;99.90;30.20;102687.00;;;;5085141;28;20556;-75
2023/09/03 11:22:37;;;;;;;0.90;0.90;;;26.60;99.90;29.70;102701.00;;;;5084370;28;20686;-75
2023/09/03 11:25:06;;;;;;;0.95;0.95;;;26.40;99.90;31.20;102695.00;;;;5061854;28;20269;-74
2023/09/03 11:27:56;;;;;;;0.10;0.10;;;26.70;99.90;31.10;102697.00;;;;5057648;28;20219;-75
2023/09/03 11:30:31;;;;;;;0.20;0.20;;;26.90;99.90;31.70;102679.00;;;;5051701;28;20209;-75
2023/09/03 11:33:00;;;;;;;0.52;0.52;;;27.20;99.90;31.80;102677.00;;;;5078036;28;20690;-75
2023/09/03 11:35:39;;;;;;;0.32;0.32;;;27.80;99.90;31.40;102668.00;;;;5063823;28;20186;-75
2023/09/03 11:38:05;;;;;;;3.28;0.50;;;27.90;99.90;31.40;102688.00;;;;5084013;28;20189;-75
2023/09/03 11:40:34;;;;;;;0.22;0.22;;;27.70;99.90;31.90;102661.00;;;;5083945;28;20703;-75
2023/09/03 11:43:12;;;;;;;0.25;0.25;;;27.70;99.90;31.90;102615.00;;;;5081192;28;20194;-74
2023/09/03 11:45:41;;;;;;;0.55;0.50;;;27.80;99.90;32.10;102641.00;;;;5044005;28;20178;-74
2023/09/03 11:48:16;;;;;;;0.40;0.40;;;27.70;99.90;31.70;102609.00;;;;5071104;28;20188;-75
2023/09/03 11:50:55;;;;;;;0.80;0.80;;;27.60;99.90;32.00;102612.00;;;;5070716;28;20185;-74
2023/09/03 11:53:41;;;;;;;0.15;0.15;;;27.50;99.90;32.20;102652.00;;;;5054329;28;20206;-74
2023/09/03 11:56:18;;;;;;;0.35;0.35;;;27.70;99.90;30.60;102690.00;;;;5059539;28;20189;-75
2023/09/03 11:58:51;;;;;;;0.85;0.85;;;27.00;99.90;30.20;102689.00;;;;5071187;28;20174;-75
2023/09/03 12:01:18;;;;;;;1.35;0.50;;;26.60;99.90;29.40;102696.00;;;;5051811;28;20372;-75
2023/09/03 12:03:50;;;;;;;0.68;0.68;;;26.40;99.90;30.80;102686.00;;;;5070500;28;20174;-75
2023/09/03 12:06:34;;;;;;;0.22;0.22;;;26.50;99.90;32.10;102652.00;;;;5070739;28;20190;-74
2023/09/03 12:09:11;;;;;;;0.10;0.10;;;27.10;99.90;31.70;102660.00;;;;5070560;28;20224;-75
2023/09/03 12:11:43;;;;;;;2.53;1.00;;;27.40;99.90;30.60;102689.00;;;;5061196;28;20256;-74
2023/09/03 12:14:10;;;;;;;0.85;0.45;;;27.10;99.90;31.30;102680.00;;;;5056110;28;20217;-74
2023/09/03 12:16:51;;;;;;;0.10;0.10;;;27.20;99.90;31.90;102684.00;;;;5062242;28;20547;-75
2023/09/03 12:19:38;;;;;;;0.68;0.68;;;27.30;99.90;31.20;102668.00;;;;5036928;28;20189;-74
2023/09/03 12:22:07;;;;;;;1.92;1.67;;;27.20;99.90;31.50;102659.00;;;;5052586;28;20199;-75
2023/09/03 12:24:33;;;;;;;0.20;0.20;;;27.40;99.90;31.00;102655.00;;;;5070204;28;20216;-74
2023/09/03 12:27:11;;;;;;;0.63;0.55;;;27.00;99.90;30.60;102697.00;;;;5053513;28;20202;-75
2023/09/03 12:29:39;;;;;;;0.30;0.30;;;27.20;99.90;31.20;102696.00;;;;5070148;28;20190;-74
2023/09/03 12:32:34;;;;;;;0.10;0.10;;;26.80;99.90;30.60;102687.00;;;;5069845;28;20301;-74
2023/09/03 12:35:22;;;;;;;0.10;0.10;;;26.60;99.90;30.10;102724.00;;;;5047726;28;20244;-74
2023/09/03 12:38:01;;;;;;;0.10;0.10;;;26.40;99.90;30.00;102711.00;;;;5068343;28;20186;-74
2023/09/03 12:40:32;;;;;;;0.20;0.20;;;26.30;99.90;31.00;102677.00;;;;5070144;28;20209;-74
2023/09/03 12:43:12;;;;;;;0.30;0.30;;;26.50;99.90;30.50;102698.00;;;;5066805;28;20179;-74
2023/09/03 12:45:44;;;;;;;1.17;1.08;;;26.40;99.90;29.20;102723.00;;;;5033926;28;20189;-74
2023/09/03 12:48:21;;;;;;;0.90;0.85;;;26.20;99.90;30.30;102697.00;;;;5069048;28;20240;-74
2023/09/03 12:50:47;;;;;;;0.17;0.17;;;26.10;99.90;30.20;102706.00;;;;5056562;28;20194;-74
2023/09/03 12:53:13;;;;;;;0.88;0.57;;;26.10;99.90;30.50;102652.00;;;;5036516;28;20206;-74
2023/09/03 12:55:45;;;;;;;0.10;0.10;;;26.20;99.90;30.50;102699.00;;;;5053521;28;20640;-74
2023/09/03 12:58:25;;;;;;;0.10;0.10;;;26.30;99.90;30.60;102705.00;;;;5069743;28;20265;-74
2023/09/03 13:00:59;;;;;;;0.63;0.63;;;26.50;99.90;30.40;102679.00;;;;5065078;28;20646;-74
2023/09/03 13:03:33;;;;;;;0.10;0.10;;;26.40;99.90;31.70;102683.00;;;;5054138;28;20210;-74
2023/09/03 13:06:02;;;;;;;0.20;0.20;;;26.70;99.90;32.10;102665.00;;;;5069436;28;20186;-74
2023/09/03 13:08:38;;;;;;;0.30;0.30;;;27.10;99.90;32.20;102654.00;;;;5069374;28;20198;-74
2023/09/03 13:11:11;;;;;;;1.30;0.70;;;27.30;99.90;31.50;102685.00;;;;5069278;28;20260;-74
2023/09/03 13:13:40;;;;;;;1.52;0.68;;;27.10;99.90;31.40;102674.00;;;;5069343;28;20171;-74
2023/09/03 13:16:27;;;;;;;0.10;0.10;;;27.00;99.90;31.50;102634.00;;;;5052845;28;20537;-74
2023/09/03 13:18:59;;;;;;;0.55;0.55;;;27.10;99.90;31.20;102677.00;;;;5068589;28;20196;-74
2023/09/03 13:24:49;;;;;;;0.85;0.85;;;26.00;99.90;30.30;102668.00;;;;5066206;28;20194;-74
2023/09/03 13:27:43;;;;;;;0.50;0.40;;;25.90;99.90;30.60;102700.00;;;;5052406;28;20258;-74
2023/09/03 13:30:15;;;;;;;0.85;0.85;;;26.20;99.90;29.90;102682.00;;;;5052412;28;20535;-74
2023/09/03 13:32:41;;;;;;;1.55;1.45;;;26.40;99.90;28.90;102676.00;;;;5068738;28;20205;-74
2023/09/03 13:35:18;;;;;;;0.10;0.10;;;26.00;99.90;30.60;102684.00;;;;5068872;28;20186;-74
2023/09/03 13:38:04;;;;;;;0.93;0.93;;;26.10;99.90;30.40;102669.00;;;;5055674;28;20213;-74
2023/09/03 13:40:40;;;;;;;0.93;0.70;;;26.30;99.90;29.10;102687.00;;;;5068250;28;20647;-74
2023/09/03 13:43:11;;;;;;;0.30;0.30;;;25.80;99.90;29.10;102691.00;;;;5063402;28;20190;-74
2023/09/03 13:45:56;;;;;;;0.10;0.10;;;25.80;99.90;30.20;102677.00;;;;5068799;28;20197;-74
2023/09/03 13:48:28;;;;;;;0.20;0.20;;;25.80;99.90;30.90;102666.00;;;;5068890;28;20618;-74
2023/09/03 13:50:59;;;;;;;0.17;0.17;;;26.20;99.90;31.70;102612.00;;;;5058684;28;20191;-74
2023/09/03 13:53:37;;;;;;;0.47;0.47;;;26.70;99.90;30.90;102664.00;;;;5068200;28;20259;-74
2023/09/03 13:56:12;;;;;;;0.10;0.10;;;26.80;99.90;30.60;102667.00;;;;5067872;28;20182;-74
2023/09/03 13:58:47;;;;;;;0.73;0.70;;;26.60;99.90;30.00;102696.00;;;;5040863;28;20285;-73
2023/09/03 14:01:20;;;;;;;0.10;0.10;;;26.40;99.90;30.50;102682.00;;;;5068850;28;20182;-74
2023/09/03 14:04:12;;;;;;;0.85;0.57;;;26.20;99.90;30.80;102680.00;;;;5052774;28;20765;-74
2023/09/03 14:06:46;;;;;;;0.20;0.20;;;26.20;99.90;30.80;102669.00;;;;5046149;28;20206;-74
2023/09/03 14:09:21;;;;;;;0.30;0.30;;;26.40;99.90;30.10;102681.00;;;;5068299;28;20196;-74
2023/09/03 14:11:53;;;;;;;0.30;0.30;;;26.20;99.90;29.80;102634.00;;;;5058315;28;20228;-74
2023/09/03 14:14:30;;;;;;;0.50;0.50;;;26.00;99.90;30.20;102678.00;;;;5068279;28;20190;-74
2023/09/03 14:17:13;;;;;;;1.15;1.02;;;26.00;99.90;30.40;102647.00;;;;5068424;28;20178;-74
2023/09/03 14:20:00;;;;;;;0.32;0.32;;;26.20;99.90;31.20;102612.00;;;;5048044;28;20288;-74
2023/09/03 14:22:47;;;;;;;0.22;0.22;;;26.50;99.90;29.90;102654.00;;;;5067819;28;20190;-74
2023/09/03 14:25:19;;;;;;;0.38;0.38;;;26.30;99.90;29.90;102646.00;;;;5067888;28;20551;-74
2023/09/03 14:27:54;;;;;;;0.10;0.10;;;26.00;99.90;30.60;102650.00;;;;5062125;28;20251;-74
2023/09/03 14:30:43;;;;;;;0.20;0.20;;;26.20;99.90;31.50;102624.00;;;;5048197;28;20186;-75
2023/09/03 14:33:19;;;;;;;0.68;0.68;;;26.50;99.90;30.00;102662.00;;;;5049791;28;20271;-74
2023/09/03 14:35:57;;;;;;;3.20;2.67;;;26.20;99.90;30.70;102644.00;;;;5067335;28;20659;-74
2023/09/03 14:38:31;;;;;;;0.32;0.32;;;26.20;99.90;30.10;102657.00;;;;5064696;28;20186;-74
2023/09/03 14:41:08;;;;;;;0.35;0.35;;;26.30;99.90;30.60;102616.00;;;;5068478;28;20260;-74
2023/09/03 14:43:46;;;;;;;0.20;0.20;;;26.30;99.90;30.90;102634.00;;;;5066892;28;20182;-73
2023/09/03 14:46:21;;;;;;;0.40;0.40;;;26.40;99.90;31.50;102614.00;;;;5068011;28;20265;-74
2023/09/03 14:48:55;;;;;;;0.10;0.10;;;26.60;99.90;31.70;102617.00;;;;5050796;28;20177;-75
2023/09/03 14:51:30;;;;;;;0.45;0.45;;;26.80;99.90;30.80;102640.00;;;;5068213;28;20178;-74
2023/09/03 14:54:00;;;;;;;0.52;0.52;;;26.80;99.90;30.20;102657.00;;;;5049087;28;20182;-74
2023/09/03 14:56:47;;;;;;;0.47;0.47;;;26.40;99.90;28.50;102690.00;;;;5041524;28;20186;-74
2023/09/03 14:59:26;;;;;;;0.10;0.10;;;25.80;99.90;29.90;102671.00;;;;5052025;28;20208;-74
2023/09/03 15:01:55;;;;;;;0.10;0.10;;;25.60;99.90;30.30;102674.00;;;;5067562;28;20197;-74
2023/09/03 15:04:30;;;;;;;0.10;0.10;;;25.90;99.90;30.80;102654.00;;;;5059201;28;20190;-74
2023/09/03 15:07:13;;;;;;;0.22;0.22;;;26.20;99.90;31.70;102644.00;;;;5067665;28;20226;-74
2023/09/03 15:09:49;;;;;;;0.65;0.65;;;26.60;99.90;30.00;102634.00;;;;5058533;28;20273;-74
2023/09/03 15:12:26;;;;;;;0.75;0.75;;;26.40;99.90;30.20;102662.00;;;;5065944;28;20246;-74
2023/09/03 15:14:56;;;;;;;1.05;0.82;;;26.00;99.90;30.00;102675.00;;;;5067481;28;20190;-74
2023/09/03 15:17:34;;;;;;;10.65;1.20;;;26.00;99.90;30.20;102658.00;;;;5068000;28;20178;-74
2023/09/03 15:20:06;;;;;;;0.13;0.13;;;25.90;99.90;30.30;102667.00;;;;5070843;28;20190;-74
2023/09/03 15:22:41;;;;;;;0.52;0.52;;;26.10;99.90;30.50;102623.00;;;;5065517;28;20186;-75
2023/09/03 15:25:30;;;;;;;0.28;0.28;;;26.10;99.90;31.00;102602.00;;;;5057503;28;20212;-74
2023/09/03 15:28:11;;;;;;;0.10;0.10;;;26.40;99.90;31.00;102634.00;;;;5070471;28;20190;-74
2023/09/03 15:30:49;;;;;;;0.30;0.30;;;26.40;99.90;31.00;102626.00;;;;5060331;28;20190;-74
2023/09/03 15:33:38;;;;;;;0.32;0.32;;;26.50;99.90;30.70;102591.00;;;;5038244;28;20221;-74
2023/09/03 15:36:10;;;;;;;0.32;0.17;;;26.40;99.90;31.40;102620.00;;;;5050736;28;20272;-74
2023/09/03 15:38:38;;;;;;;0.65;0.50;;;26.50;99.90;30.80;102634.00;;;;5082221;28;20190;-74
2023/09/03 15:41:19;;;;;;;0.20;0.20;;;26.40;99.90;30.90;102632.00;;;;5067639;28;20202;-74
2023/09/03 15:44:03;;;;;;;0.10;0.10;;;26.50;99.90;31.70;102611.00;;;;5071415;28;20189;-74
2023/09/03 15:46:39;;;;;;;0.80;0.80;;;26.70;99.90;29.40;102662.00;;;;5071083;28;20775;-74
2023/09/03 15:49:14;;;;;;;0.52;0.52;;;26.20;99.90;30.30;102643.00;;;;5071074;28;20219;-74
2023/09/03 15:51:50;;;;;;;0.17;0.17;;;26.30;99.90;31.40;102623.00;;;;5070590;28;20224;-74
2023/09/03 15:54:20;;;;;;;0.15;0.15;;;26.50;99.90;29.60;102665.00;;;;5070672;28;20189;-74
2023/09/03 15:57:00;;;;;;;0.10;0.10;;;26.20;99.90;31.00;102632.00;;;;5053431;28;20182;-74
2023/09/03 15:59:26;;;;;;;0.10;0.10;;;26.30;99.90;31.60;102644.00;;;;5066952;28;20228;-74
2023/09/03 16:01:57;;;;;;;0.10;0.10;;;26.70;99.90;30.90;102631.00;;;;5070808;28;20673;-74
2023/09/03 16:04:26;;;;;;;0.10;0.10;;;26.70;99.90;31.50;102630.00;;;;5053710;28;20182;-74
2023/09/03 16:07:00;;;;;;;0.32;0.32;;;26.70;99.90;31.10;102622.00;;;;5069864;28;20545;-74
2023/09/03 16:09:27;;;;;;;0.20;0.20;;;26.60;99.90;31.70;102613.00;;;;5070925;28;20194;-74
2023/09/03 16:12:10;;;;;;;0.35;0.35;;;26.70;99.90;30.80;102622.00;;;;5055153;28;21100;-74
2023/09/03 16:14:45;;;;;;;0.40;0.40;;;26.80;99.90;30.10;102659.00;;;;5070515;28;20199;-74
2023/09/03 16:17:11;;;;;;;0.10;0.10;;;26.10;99.90;30.80;102645.00;;;;5054848;28;20182;-74
2023/09/03 16:19:47;;;;;;;0.35;0.35;;;26.10;99.90;31.10;102632.00;;;;5070744;28;20213;-74
2023/09/03 16:22:28;;;;;;;0.63;0.63;;;26.30;99.90;29.40;102660.00;;;;5070835;28;20198;-74
2023/09/03 16:24:57;;;;;;;0.10;0.10;;;26.00;99.90;29.80;102617.00;;;;5068618;28;20182;-74
2023/09/03 16:27:31;;;;;;;1.50;1.50;;;25.80;99.90;30.50;102634.00;;;;5067041;28;20609;-74
2023/09/03 16:30:06;;;;;;;0.10;0.10;;;25.90;99.90;31.00;102623.00;;;;5061132;28;20257;-74
2023/09/03 16:32:41;;;;;;;0.20;0.20;;;26.10;99.90;31.00;102613.00;;;;5069875;28;20217;-74
2023/09/03 16:35:19;;;;;;;0.43;0.30;;;26.30;99.90;31.20;102616.00;;;;5067396;28;20178;-74
2023/09/03 16:37:53;;;;;;;0.10;0.10;;;26.50;99.90;30.50;102629.00;;;;5063182;28;20182;-74
2023/09/03 16:40:33;;;;;;;0.10;0.10;;;26.20;99.90;31.00;102626.00;;;;5069902;28;20185;-74
2023/09/03 16:43:10;;;;;;;0.10;0.10;;;26.20;99.90;30.10;102592.00;;;;5066474;28;20287;-74
2023/09/03 16:45:48;;;;;;;0.57;0.57;;;26.00;99.90;30.80;102624.00;;;;5070039;28;20197;-75
2023/09/03 16:48:22;;;;;;;0.38;0.38;;;26.00;99.90;30.60;102590.00;;;;5063122;28;20182;-75
2023/09/03 16:51:11;;;;;;;0.20;0.20;;;26.10;99.90;30.80;102626.00;;;;5069577;28;20205;-74
2023/09/03 16:53:57;;;;;;;0.20;0.20;;;26.10;99.90;30.30;102640.00;;;;5044591;28;20194;-74
2023/09/03 16:56:45;;;;;;;0.10;0.10;;;25.90;99.90;31.20;102584.00;;;;5065313;28;20182;-74
2023/09/03 16:59:31;;;;;;;4.18;0.65;;;26.20;99.90;29.80;102635.00;;;;5058828;28;20191;-74
2023/09/03 17:02:18;;;;;;;0.30;0.30;;;25.80;99.90;30.60;102600.00;;;;5053198;28;20296;-74
2023/09/03 17:05:13;;;;;;;0.20;0.20;;;25.80;99.90;30.80;102626.00;;;;5047586;28;20212;-74
2023/09/03 17:08:06;;;;;;;0.47;0.47;;;26.00;99.90;30.10;102626.00;;;;5062688;28;20182;-74
2023/09/03 17:10:43;;;;;;;0.40;0.40;;;26.00;99.90;30.10;102648.00;;;;5069075;28;20679;-74
2023/09/03 17:13:18;;;;;;;0.10;0.10;;;25.70;99.90;30.00;102648.00;;;;5065483;28;20197;-74
2023/09/03 17:15:47;;;;;;;0.30;0.30;;;25.60;99.90;29.30;102629.00;;;;5053094;28;20185;-74
2023/09/03 17:18:25;;;;;;;0.10;0.10;;;25.40;99.90;30.10;102649.00;;;;5054167;28;20186;-74
2023/09/03 17:21:13;;;;;;;0.10;0.10;;;25.30;99.90;30.20;102640.00;;;;5044619;28;20657;-74
2023/09/03 17:24:07;;;;;;;0.20;0.20;;;25.60;99.90;30.10;102640.00;;;;5065949;28;20557;-74
2023/09/03 17:26:53;;;;;;;0.10;0.10;;;25.70;99.90;29.80;102645.00;;;;5067982;28;20188;-74
2023/09/03 17:29:30;;;;;;;0.30;0.30;;;25.60;99.90;29.80;102659.00;;;;5045190;28;20194;-74
2023/09/03 17:32:13;;;;;;;0.10;0.10;;;25.40;99.90;29.70;102643.00;;;;5063046;28;20271;-74
2023/09/03 17:35:04;;;;;;;0.20;0.20;;;25.30;99.90;30.20;102638.00;;;;5069122;28;20213;-74
2023/09/03 17:37:52;;;;;;;0.10;0.10;;;25.40;99.90;29.90;102640.00;;;;5068940;28;20192;-74
2023/09/03 17:40:41;;;;;;;0.20;0.20;;;25.40;99.90;28.80;102663.00;;;;5052416;28;20218;-74
2023/09/03 17:43:37;;;;;;;0.20;0.20;;;25.30;99.90;29.00;102667.00;;;;5064793;28;20186;-74
2023/09/03 17:46:17;;;;;;;0.20;0.20;;;25.00;99.90;29.90;102660.00;;;;5035573;28;20201;-74
2023/09/03 17:48:48;;;;;;;0.95;0.95;;;25.00;99.90;29.10;102658.00;;;;5062833;28;20186;-74
2023/09/03 17:51:37;;;;;;;0.20;0.20;;;25.10;99.90;29.90;102611.00;;;;5068738;28;20265;-74
2023/09/03 17:54:24;;;;;;;0.38;0.38;;;25.10;99.90;30.00;102635.00;;;;5064158;28;20178;-74
2023/09/03 17:57:14;;;;;;;0.20;0.20;;;25.20;99.90;29.40;102642.00;;;;5051700;28;20208;-74
2023/09/03 18:00:06;;;;;;;0.30;0.30;;;25.10;99.90;28.60;102611.00;;;;5035920;28;20190;-74
2023/09/03 18:02:58;;;;;;;0.10;0.10;;;24.70;99.90;29.40;102602.00;;;;5068281;28;20219;-74
2023/09/03 18:05:45;;;;;;;0.10;0.10;;;24.60;99.90;29.30;102643.00;;;;5054906;28;20550;-75
2023/09/03 18:08:22;;;;;;;0.10;0.10;;;24.70;99.90;29.20;102634.00;;;;5033336;28;20656;-74
2023/09/03 18:10:57;;;;;;;0.20;0.20;;;24.60;99.90;28.60;102630.00;;;;5068111;28;20186;-74
2023/09/03 18:13:23;;;;;;;0.20;0.20;;;24.40;99.90;29.00;102633.00;;;;5064805;28;20670;-74
2023/09/03 18:16:13;;;;;;;0.20;0.20;;;24.40;99.90;28.70;102632.00;;;;5050507;28;20193;-74
2023/09/03 18:18:57;;;;;;;0.20;0.20;;;24.30;99.90;28.00;102616.00;;;;5052879;28;20186;-74
2023/09/03 18:21:35;;;;;;;0.20;0.20;;;24.00;99.90;27.50;102585.00;;;;5066906;28;20267;-74
2023/09/03 18:24:18;;;;;;;0.20;0.20;;;23.70;99.90;27.70;102565.00;;;;5068173;28;20174;-74
2023/09/03 18:26:52;;;;;;;0.20;0.20;;;23.70;99.90;27.50;102538.00;;;;5067839;28;20279;-74
2023/09/03 18:29:36;;;;;;;0.20;0.20;;;23.50;99.90;27.70;102563.00;;;;5060926;28;20193;-74
2023/09/03 18:32:05;;;;;;;0.30;0.30;;;23.40;99.90;28.10;102566.00;;;;5065517;28;20225;-74
2023/09/03 18:34:51;;;;;;;0.20;0.20;;;23.40;99.90;28.20;102562.00;;;;5051538;28;20224;-74
2023/09/03 18:37:40;;;;;;;0.20;0.20;;;23.60;99.90;28.20;102572.00;;;;5064454;28;20773;-74
2023/09/03 18:40:07;;;;;;;0.30;0.30;;;23.60;99.90;28.00;102575.00;;;;5068006;28;20636;-74
2023/09/03 18:42:42;;;;;;;0.20;0.20;;;23.60;99.90;28.40;102548.00;;;;5068170;28;20189;-74
2023/09/03 18:45:20;;;;;;;0.20;0.20;;;23.70;99.90;27.40;102579.00;;;;5067869;28;20642;-74